Etusivu
METAR-TAF:

METAR-TAF

Lentoasemat :

Esmeraldas, Ecuador

Leveyspiiri: 00-58-43N, Pituuspiiri: 079-37-36W, korkeus merenpinnasta: 10 m

Tämänhetkinen sää

Tämä raportti tehtiin 1 tunti ja 0 minuuttia sitten, kello 12.00 UTC
Tuuli 5 kn etelästä
Lämpötila 23°C
Kosteus 100%
Ilmanpaine 1012 hPa
Näkyvyys 10 km tai enemmän
Muutamia pilviä 2600 ft:n korkeudessa
Hajanaisia pilviä 10000 ft:n korkeudessa

METAR: SETN 021200Z 18005KT 9999 FEW026 SCT100 23/23 Q1012 A2988

Aika: 08:00 (13:00 UTC)


TAF: puuttuu

Säähavainnot ja -ennusteet yli 4000 lentoasemalta (METAR- ja TAF-raportit).

Käytössä olevat sääasemat on merkitty karttaan keltaisilla ja punaisilla pisteillä.

Aseta hiiri pisteen päälle nähdäksesi sääaseman nimen.

Klikkaa sitten nähdäksesi säähavainnot ja -ennusteet.

Kartan vaihtaminen: klikkaa mustalla rastilla varustettuja vihreitä pisteitä, niin voit zoomata sisään; viivalla varustettua vihreää pistettä, niin voit zoomata ulos tai vihreitä nuolia, niin pääset viereisille kartoille.


METAR-TAF: